sensor_id;sensor_type;location;lat;lon;timestamp;temperature;humidity
16801;DHT22;8518;53.236;10.384;2023-02-15T00:02:12;6.80;99.90
16801;DHT22;8518;53.236;10.384;2023-02-15T00:04:38;6.70;99.90
16801;DHT22;8518;53.236;10.384;2023-02-15T00:07:14;4.70;99.90
16801;DHT22;8518;53.236;10.384;2023-02-15T00:09:42;4.20;99.90
16801;DHT22;8518;53.236;10.384;2023-02-15T00:12:17;6.10;99.90
16801;DHT22;8518;53.236;10.384;2023-02-15T00:14:43;4.70;99.90
16801;DHT22;8518;53.236;10.384;2023-02-15T00:32:11;4.50;99.90
16801;DHT22;8518;53.236;10.384;2023-02-15T00:34:36;4.00;99.90
16801;DHT22;8518;53.236;10.384;2023-02-15T00:37:02;3.80;99.90
16801;DHT22;8518;53.236;10.384;2023-02-15T00:42:04;4.40;99.90
16801;DHT22;8518;53.236;10.384;2023-02-15T00:51:51;4.40;99.90
16801;DHT22;8518;53.236;10.384;2023-02-15T01:04:01;4.40;99.90
16801;DHT22;8518;53.236;10.384;2023-02-15T01:11:22;4.20;99.90
16801;DHT22;8518;53.236;10.384;2023-02-15T01:13:50;4.20;99.90
16801;DHT22;8518;53.236;10.384;2023-02-15T01:21:13;4.20;99.90
16801;DHT22;8518;53.236;10.384;2023-02-15T01:23:41;5.40;99.90
16801;DHT22;8518;53.236;10.384;2023-02-15T01:26:07;5.00;99.90
16801;DHT22;8518;53.236;10.384;2023-02-15T01:28:33;4.20;99.90
16801;DHT22;8518;53.236;10.384;2023-02-15T01:33:55;4.20;99.90
16801;DHT22;8518;53.236;10.384;2023-02-15T01:38:47;4.20;99.90
16801;DHT22;8518;53.236;10.384;2023-02-15T01:41:13;5.70;99.90
16801;DHT22;8518;53.236;10.384;2023-02-15T01:43:57;3.70;99.90
16801;DHT22;8518;53.236;10.384;2023-02-15T01:49:24;4.00;99.90
16801;DHT22;8518;53.236;10.384;2023-02-15T01:52:11;4.00;99.90
16801;DHT22;8518;53.236;10.384;2023-02-15T01:54:41;4.00;99.90
16801;DHT22;8518;53.236;10.384;2023-02-15T01:57:16;3.90;99.90
16801;DHT22;8518;53.236;10.384;2023-02-15T01:59:45;3.70;99.90
16801;DHT22;8518;53.236;10.384;2023-02-15T02:02:41;3.70;99.90
16801;DHT22;8518;53.236;10.384;2023-02-15T02:05:08;3.90;99.90
16801;DHT22;8518;53.236;10.384;2023-02-15T02:07:39;3.80;99.90
16801;DHT22;8518;53.236;10.384;2023-02-15T02:10:08;3.30;99.90
16801;DHT22;8518;53.236;10.384;2023-02-15T02:13:02;4.00;99.90
16801;DHT22;8518;53.236;10.384;2023-02-15T02:15:54;3.90;99.90
16801;DHT22;8518;53.236;10.384;2023-02-15T02:24:36;3.80;99.90
16801;DHT22;8518;53.236;10.384;2023-02-15T02:47:19;3.70;99.90
16801;DHT22;8518;53.236;10.384;2023-02-15T02:55:44;3.70;99.90
16801;DHT22;8518;53.236;10.384;2023-02-15T03:00:50;3.60;99.90
16801;DHT22;8518;53.236;10.384;2023-02-15T03:03:42;3.60;99.90
16801;DHT22;8518;53.236;10.384;2023-02-15T03:06:12;3.60;99.90
16801;DHT22;8518;53.236;10.384;2023-02-15T03:08:47;4.40;99.90
16801;DHT22;8518;53.236;10.384;2023-02-15T03:11:14;3.50;99.90
16801;DHT22;8518;53.236;10.384;2023-02-15T03:13:40;3.50;99.90
16801;DHT22;8518;53.236;10.384;2023-02-15T03:16:07;5.40;99.90
16801;DHT22;8518;53.236;10.384;2023-02-15T03:19:00;3.40;99.90
16801;DHT22;8518;53.236;10.384;2023-02-15T03:21:32;3.40;99.90
16801;DHT22;8518;53.236;10.384;2023-02-15T03:24:08;3.30;99.90
16801;DHT22;8518;53.236;10.384;2023-02-15T03:26:36;3.20;99.90
16801;DHT22;8518;53.236;10.384;2023-02-15T03:29:05;3.10;99.90
16801;DHT22;8518;53.236;10.384;2023-02-15T03:31:35;3.00;99.90
16801;DHT22;8518;53.236;10.384;2023-02-15T03:34:04;2.90;99.90
16801;DHT22;8518;53.236;10.384;2023-02-15T03:45:11;3.00;99.90
16801;DHT22;8518;53.236;10.384;2023-02-15T03:47:44;3.00;99.90
16801;DHT22;8518;53.236;10.384;2023-02-15T03:53:04;2.90;99.90
16801;DHT22;8518;53.236;10.384;2023-02-15T03:55:33;2.80;99.90
16801;DHT22;8518;53.236;10.384;2023-02-15T03:57:59;5.40;99.90
16801;DHT22;8518;53.236;10.384;2023-02-15T04:00:51;2.90;99.90
16801;DHT22;8518;53.236;10.384;2023-02-15T04:04:12;2.80;99.90
16801;DHT22;8518;53.236;10.384;2023-02-15T04:06:39;2.80;99.90
16801;DHT22;8518;53.236;10.384;2023-02-15T04:09:04;3.30;99.90
16801;DHT22;8518;53.236;10.384;2023-02-15T04:18:23;2.60;99.90
16801;DHT22;8518;53.236;10.384;2023-02-15T04:24:01;2.50;99.90
16801;DHT22;8518;53.236;10.384;2023-02-15T04:26:47;3.10;99.90
16801;DHT22;8518;53.236;10.384;2023-02-15T04:29:16;2.30;99.90
16801;DHT22;8518;53.236;10.384;2023-02-15T04:31:53;2.20;99.90
16801;DHT22;8518;53.236;10.384;2023-02-15T04:34:19;2.10;99.90
16801;DHT22;8518;53.236;10.384;2023-02-15T04:36:45;2.10;99.90
16801;DHT22;8518;53.236;10.384;2023-02-15T04:39:15;1.60;99.90
16801;DHT22;8518;53.236;10.384;2023-02-15T04:42:16;2.10;99.90
16801;DHT22;8518;53.236;10.384;2023-02-15T04:44:42;2.10;99.90
16801;DHT22;8518;53.236;10.384;2023-02-15T04:47:09;2.00;99.90
16801;DHT22;8518;53.236;10.384;2023-02-15T04:49:34;1.70;99.90
16801;DHT22;8518;53.236;10.384;2023-02-15T04:52:00;1.80;99.90
16801;DHT22;8518;53.236;10.384;2023-02-15T04:56:53;2.00;99.90
16801;DHT22;8518;53.236;10.384;2023-02-15T05:02:09;2.00;99.90
16801;DHT22;8518;53.236;10.384;2023-02-15T05:07:00;2.00;99.90
16801;DHT22;8518;53.236;10.384;2023-02-15T05:09:26;2.30;99.90
16801;DHT22;8518;53.236;10.384;2023-02-15T05:11:53;2.30;99.90
16801;DHT22;8518;53.236;10.384;2023-02-15T05:14:19;1.80;99.90
16801;DHT22;8518;53.236;10.384;2023-02-15T05:16:45;2.30;99.90
16801;DHT22;8518;53.236;10.384;2023-02-15T05:19:10;3.80;99.90
16801;DHT22;8518;53.236;10.384;2023-02-15T05:21:37;1.80;99.90
16801;DHT22;8518;53.236;10.384;2023-02-15T05:24:03;1.80;99.90
16801;DHT22;8518;53.236;10.384;2023-02-15T05:29:33;1.90;99.90
16801;DHT22;8518;53.236;10.384;2023-02-15T05:31:59;1.80;99.90
16801;DHT22;8518;53.236;10.384;2023-02-15T05:34:24;1.50;99.90
16801;DHT22;8518;53.236;10.384;2023-02-15T05:36:52;3.20;99.90
16801;DHT22;8518;53.236;10.384;2023-02-15T06:01:17;1.50;99.90
16801;DHT22;8518;53.236;10.384;2023-02-15T06:08:36;1.50;99.90
16801;DHT22;8518;53.236;10.384;2023-02-15T06:34:49;1.30;99.90
16801;DHT22;8518;53.236;10.384;2023-02-15T06:37:14;1.20;99.90
16801;DHT22;8518;53.236;10.384;2023-02-15T06:39:40;1.00;99.90
16801;DHT22;8518;53.236;10.384;2023-02-15T06:45:28;1.50;99.90
16801;DHT22;8518;53.236;10.384;2023-02-15T06:50:19;1.60;99.90
16801;DHT22;8518;53.236;10.384;2023-02-15T06:58:35;1.70;99.90
16801;DHT22;8518;53.236;10.384;2023-02-15T07:06:49;1.60;99.90
16801;DHT22;8518;53.236;10.384;2023-02-15T07:09:14;1.60;99.90
16801;DHT22;8518;53.236;10.384;2023-02-15T07:15:02;1.60;99.90
16801;DHT22;8518;53.236;10.384;2023-02-15T07:31:32;1.60;99.90
16801;DHT22;8518;53.236;10.384;2023-02-15T07:33:58;1.70;99.90
16801;DHT22;8518;53.236;10.384;2023-02-15T07:41:16;1.50;99.90
16801;DHT22;8518;53.236;10.384;2023-02-15T07:43:44;1.40;99.90
16801;DHT22;8518;53.236;10.384;2023-02-15T07:46:12;1.40;99.90
16801;DHT22;8518;53.236;10.384;2023-02-15T07:48:39;1.40;99.90
16801;DHT22;8518;53.236;10.384;2023-02-15T07:51:07;1.00;99.90
16801;DHT22;8518;53.236;10.384;2023-02-15T07:56:54;1.50;99.90
16801;DHT22;8518;53.236;10.384;2023-02-15T08:15:49;1.90;99.90
16801;DHT22;8518;53.236;10.384;2023-02-15T08:20:41;1.90;99.90
16801;DHT22;8518;53.236;10.384;2023-02-15T08:26:31;2.60;99.90
16801;DHT22;8518;53.236;10.384;2023-02-15T08:33:50;2.60;99.90
16801;DHT22;8518;53.236;10.384;2023-02-15T08:36:19;2.70;99.90
16801;DHT22;8518;53.236;10.384;2023-02-15T08:41:18;2.80;99.90
16801;DHT22;8518;53.236;10.384;2023-02-15T08:43:46;2.90;99.90
16801;DHT22;8518;53.236;10.384;2023-02-15T08:46:14;3.20;99.90
16801;DHT22;8518;53.236;10.384;2023-02-15T08:51:29;3.50;99.90
16801;DHT22;8518;53.236;10.384;2023-02-15T08:53:55;3.70;99.90
16801;DHT22;8518;53.236;10.384;2023-02-15T08:56:25;3.80;99.90
16801;DHT22;8518;53.236;10.384;2023-02-15T08:58:51;3.60;99.90
16801;DHT22;8518;53.236;10.384;2023-02-15T09:01:20;7.10;99.90
16801;DHT22;8518;53.236;10.384;2023-02-15T09:03:48;4.10;99.90
16801;DHT22;8518;53.236;10.384;2023-02-15T09:06:15;4.20;99.90
16801;DHT22;8518;53.236;10.384;2023-02-15T09:11:13;4.40;99.90
16801;DHT22;8518;53.236;10.384;2023-02-15T09:13:42;4.50;99.90
16801;DHT22;8518;53.236;10.384;2023-02-15T09:16:09;4.60;99.90
16801;DHT22;8518;53.236;10.384;2023-02-15T09:18:37;4.60;99.90
16801;DHT22;8518;53.236;10.384;2023-02-15T09:21:08;4.60;99.90
16801;DHT22;8518;53.236;10.384;2023-02-15T09:29:22;4.90;99.90
16801;DHT22;8518;53.236;10.384;2023-02-15T09:46:40;5.10;99.90
16801;DHT22;8518;53.236;10.384;2023-02-15T09:56:06;5.40;99.90
16801;DHT22;8518;53.236;10.384;2023-02-15T09:59:01;5.30;99.90
16801;DHT22;8518;53.236;10.384;2023-02-15T10:04:39;5.30;99.90
16801;DHT22;8518;53.236;10.384;2023-02-15T10:16:30;5.80;99.90
16801;DHT22;8518;53.236;10.384;2023-02-15T10:27:11;6.10;99.90
16801;DHT22;8518;53.236;10.384;2023-02-15T10:30:08;6.20;99.90
16801;DHT22;8518;53.236;10.384;2023-02-15T10:32:41;6.30;99.90
16801;DHT22;8518;53.236;10.384;2023-02-15T10:35:28;6.40;99.90
16801;DHT22;8518;53.236;10.384;2023-02-15T10:38:18;6.50;99.90
16801;DHT22;8518;53.236;10.384;2023-02-15T10:51:56;8.50;99.90
16801;DHT22;8518;53.236;10.384;2023-02-15T10:54:57;7.70;99.90
16801;DHT22;8518;53.236;10.384;2023-02-15T11:00:44;10.80;99.90
16801;DHT22;8518;53.236;10.384;2023-02-15T11:06:06;10.20;99.90
16801;DHT22;8518;53.236;10.384;2023-02-15T11:08:38;10.80;99.90
16801;DHT22;8518;53.236;10.384;2023-02-15T11:11:13;11.90;99.90
16801;DHT22;8518;53.236;10.384;2023-02-15T11:13:45;13.70;99.90
16801;DHT22;8518;53.236;10.384;2023-02-15T11:16:25;15.50;99.90
16801;DHT22;8518;53.236;10.384;2023-02-15T11:18:59;15.50;99.90
16801;DHT22;8518;53.236;10.384;2023-02-15T11:21:40;16.80;99.90
16801;DHT22;8518;53.236;10.384;2023-02-15T11:24:13;17.40;99.90
16801;DHT22;8518;53.236;10.384;2023-02-15T11:26:45;19.00;93.90
16801;DHT22;8518;53.236;10.384;2023-02-15T11:29:19;19.20;94.60
16801;DHT22;8518;53.236;10.384;2023-02-15T11:31:51;20.30;91.70
16801;DHT22;8518;53.236;10.384;2023-02-15T11:34:26;21.80;85.80
16801;DHT22;8518;53.236;10.384;2023-02-15T11:36:55;23.20;76.10
16801;DHT22;8518;53.236;10.384;2023-02-15T11:39:26;23.90;69.30
16801;DHT22;8518;53.236;10.384;2023-02-15T11:41:58;24.20;66.00
16801;DHT22;8518;53.236;10.384;2023-02-15T11:44:30;24.40;62.80
16801;DHT22;8518;53.236;10.384;2023-02-15T11:47:00;24.80;60.30
16801;DHT22;8518;53.236;10.384;2023-02-15T11:49:34;25.00;60.30
16801;DHT22;8518;53.236;10.384;2023-02-15T11:52:02;25.60;58.20
16801;DHT22;8518;53.236;10.384;2023-02-15T11:54:36;25.90;55.50
16801;DHT22;8518;53.236;10.384;2023-02-15T11:57:25;26.40;54.70
16801;DHT22;8518;53.236;10.384;2023-02-15T11:59:58;27.00;52.20
16801;DHT22;8518;53.236;10.384;2023-02-15T12:02:27;27.50;50.70
16801;DHT22;8518;53.236;10.384;2023-02-15T12:05:03;27.90;49.20
16801;DHT22;8518;53.236;10.384;2023-02-15T12:07:40;27.70;47.60
16801;DHT22;8518;53.236;10.384;2023-02-15T12:10:24;27.60;47.20
16801;DHT22;8518;53.236;10.384;2023-02-15T12:13:13;27.90;46.60
16801;DHT22;8518;53.236;10.384;2023-02-15T12:15:43;28.00;46.40
16801;DHT22;8518;53.236;10.384;2023-02-15T12:18:41;28.80;45.30
16801;DHT22;8518;53.236;10.384;2023-02-15T12:21:15;29.10;43.60
16801;DHT22;8518;53.236;10.384;2023-02-15T12:23:52;29.50;43.20
16801;DHT22;8518;53.236;10.384;2023-02-15T12:26:44;29.70;42.50
16801;DHT22;8518;53.236;10.384;2023-02-15T12:29:22;29.80;41.20
16801;DHT22;8518;53.236;10.384;2023-02-15T12:31:51;29.70;41.20
16801;DHT22;8518;53.236;10.384;2023-02-15T12:34:30;29.90;40.60
16801;DHT22;8518;53.236;10.384;2023-02-15T12:37:01;30.00;41.20
16801;DHT22;8518;53.236;10.384;2023-02-15T12:39:31;29.70;40.20
16801;DHT22;8518;53.236;10.384;2023-02-15T12:45:30;29.80;40.00
16801;DHT22;8518;53.236;10.384;2023-02-15T12:48:15;29.70;39.70
16801;DHT22;8518;53.236;10.384;2023-02-15T12:50:51;29.70;39.80
16801;DHT22;8518;53.236;10.384;2023-02-15T12:53:21;28.90;40.30
16801;DHT22;8518;53.236;10.384;2023-02-15T12:58:32;28.30;41.40
16801;DHT22;8518;53.236;10.384;2023-02-15T13:01:09;27.60;41.50
16801;DHT22;8518;53.236;10.384;2023-02-15T13:03:38;27.60;42.50
16801;DHT22;8518;53.236;10.384;2023-02-15T13:06:05;27.90;42.30
16801;DHT22;8518;53.236;10.384;2023-02-15T13:08:39;28.20;42.00
16801;DHT22;8518;53.236;10.384;2023-02-15T13:11:13;28.30;41.50
16801;DHT22;8518;53.236;10.384;2023-02-15T13:13:54;28.50;41.40
16801;DHT22;8518;53.236;10.384;2023-02-15T13:16:34;28.30;42.00
16801;DHT22;8518;53.236;10.384;2023-02-15T13:19:36;28.20;41.90
16801;DHT22;8518;53.236;10.384;2023-02-15T13:22:20;28.10;42.00
16801;DHT22;8518;53.236;10.384;2023-02-15T13:24:48;27.90;41.80
16801;DHT22;8518;53.236;10.384;2023-02-15T13:27:21;27.70;42.20
16801;DHT22;8518;53.236;10.384;2023-02-15T13:29:51;27.50;42.60
16801;DHT22;8518;53.236;10.384;2023-02-15T13:32:39;27.60;42.90
16801;DHT22;8518;53.236;10.384;2023-02-15T13:35:14;27.80;42.70
16801;DHT22;8518;53.236;10.384;2023-02-15T13:40:41;28.10;42.20
16801;DHT22;8518;53.236;10.384;2023-02-15T13:51:45;27.30;42.60
16801;DHT22;8518;53.236;10.384;2023-02-15T13:55:00;26.60;43.70
16801;DHT22;8518;53.236;10.384;2023-02-15T13:57:29;26.10;44.10
16801;DHT22;8518;53.236;10.384;2023-02-15T14:02:57;26.30;45.40
16801;DHT22;8518;53.236;10.384;2023-02-15T14:05:34;26.30;45.50
16801;DHT22;8518;53.236;10.384;2023-02-15T14:08:11;26.00;45.40
16801;DHT22;8518;53.236;10.384;2023-02-15T14:11:03;25.70;45.70
16801;DHT22;8518;53.236;10.384;2023-02-15T14:13:57;25.40;46.00
16801;DHT22;8518;53.236;10.384;2023-02-15T14:24:49;22.80;51.30
16801;DHT22;8518;53.236;10.384;2023-02-15T14:30:21;21.70;54.90
16801;DHT22;8518;53.236;10.384;2023-02-15T14:35:40;21.10;58.40
16801;DHT22;8518;53.236;10.384;2023-02-15T14:40:59;20.20;62.50
16801;DHT22;8518;53.236;10.384;2023-02-15T14:49:10;18.80;71.50
16801;DHT22;8518;53.236;10.384;2023-02-15T14:54:10;17.60;81.80
16801;DHT22;8518;53.236;10.384;2023-02-15T14:56:36;17.10;88.70
16801;DHT22;8518;53.236;10.384;2023-02-15T14:59:23;16.50;91.80
16801;DHT22;8518;53.236;10.384;2023-02-15T15:02:09;15.90;95.00
16801;DHT22;8518;53.236;10.384;2023-02-15T15:04:41;15.40;98.10
16801;DHT22;8518;53.236;10.384;2023-02-15T15:09:41;14.10;99.90
16801;DHT22;8518;53.236;10.384;2023-02-15T15:15:44;13.30;99.90
16801;DHT22;8518;53.236;10.384;2023-02-15T15:18:45;13.00;99.90
16801;DHT22;8518;53.236;10.384;2023-02-15T15:21:11;12.80;99.90
16801;DHT22;8518;53.236;10.384;2023-02-15T15:23:40;12.70;99.90
16801;DHT22;8518;53.236;10.384;2023-02-15T15:26:25;12.30;99.90
16801;DHT22;8518;53.236;10.384;2023-02-15T15:34:16;11.90;99.90
16801;DHT22;8518;53.236;10.384;2023-02-15T15:40:11;11.10;99.90
16801;DHT22;8518;53.236;10.384;2023-02-15T15:42:50;10.80;99.90
16801;DHT22;8518;53.236;10.384;2023-02-15T15:50:57;10.30;99.90
16801;DHT22;8518;53.236;10.384;2023-02-15T15:53:30;11.10;99.90
16801;DHT22;8518;53.236;10.384;2023-02-15T15:56:05;10.50;99.90
16801;DHT22;8518;53.236;10.384;2023-02-15T15:58:33;9.80;99.90
16801;DHT22;8518;53.236;10.384;2023-02-15T16:01:10;10.50;99.90
16801;DHT22;8518;53.236;10.384;2023-02-15T16:03:38;9.50;99.90
16801;DHT22;8518;53.236;10.384;2023-02-15T16:06:37;9.40;99.90
16801;DHT22;8518;53.236;10.384;2023-02-15T16:09:30;9.30;99.90
16801;DHT22;8518;53.236;10.384;2023-02-15T16:11:57;9.60;99.90
16801;DHT22;8518;53.236;10.384;2023-02-15T16:14:37;9.70;99.90
16801;DHT22;8518;53.236;10.384;2023-02-15T16:17:14;9.00;99.90
16801;DHT22;8518;53.236;10.384;2023-02-15T16:19:44;8.90;99.90
16801;DHT22;8518;53.236;10.384;2023-02-15T16:22:29;9.80;99.90
16801;DHT22;8518;53.236;10.384;2023-02-15T16:27:46;8.50;99.90
16801;DHT22;8518;53.236;10.384;2023-02-15T16:33:03;8.30;99.90
16801;DHT22;8518;53.236;10.384;2023-02-15T16:35:29;9.00;99.90
16801;DHT22;8518;53.236;10.384;2023-02-15T16:37:55;9.20;99.90
16801;DHT22;8518;53.236;10.384;2023-02-15T16:42:56;8.20;99.90
16801;DHT22;8518;53.236;10.384;2023-02-15T16:45:26;9.30;99.90
16801;DHT22;8518;53.236;10.384;2023-02-15T16:47:56;7.80;99.90
16801;DHT22;8518;53.236;10.384;2023-02-15T16:50:53;8.40;99.90
16801;DHT22;8518;53.236;10.384;2023-02-15T16:53:25;7.80;99.90
16801;DHT22;8518;53.236;10.384;2023-02-15T16:55:54;7.60;99.90
16801;DHT22;8518;53.236;10.384;2023-02-15T16:58:48;7.60;99.90
16801;DHT22;8518;53.236;10.384;2023-02-15T17:01:14;7.50;99.90
16801;DHT22;8518;53.236;10.384;2023-02-15T17:04:14;9.70;99.90
16801;DHT22;8518;53.236;10.384;2023-02-15T17:09:25;7.70;99.90
16801;DHT22;8518;53.236;10.384;2023-02-15T17:11:51;8.40;99.90
16801;DHT22;8518;53.236;10.384;2023-02-15T17:14:21;9.80;99.90
16801;DHT22;8518;53.236;10.384;2023-02-15T17:17:05;7.30;99.90
16801;DHT22;8518;53.236;10.384;2023-02-15T17:19:40;7.30;99.90
16801;DHT22;8518;53.236;10.384;2023-02-15T17:22:18;7.30;99.90
16801;DHT22;8518;53.236;10.384;2023-02-15T17:24:47;9.20;99.90
16801;DHT22;8518;53.236;10.384;2023-02-15T17:27:20;7.00;99.90
16801;DHT22;8518;53.236;10.384;2023-02-15T17:30:00;9.90;99.90
16801;DHT22;8518;53.236;10.384;2023-02-15T17:32:37;7.10;99.90
16801;DHT22;8518;53.236;10.384;2023-02-15T17:37:44;7.00;99.90
16801;DHT22;8518;53.236;10.384;2023-02-15T17:40:27;7.00;99.90
16801;DHT22;8518;53.236;10.384;2023-02-15T17:43:10;6.60;99.90
16801;DHT22;8518;53.236;10.384;2023-02-15T17:45:47;6.80;99.90
16801;DHT22;8518;53.236;10.384;2023-02-15T17:48:21;6.80;99.90
16801;DHT22;8518;53.236;10.384;2023-02-15T17:53:16;6.80;99.90
16801;DHT22;8518;53.236;10.384;2023-02-15T17:58:13;6.80;99.90
16801;DHT22;8518;53.236;10.384;2023-02-15T18:00:46;6.70;99.90
16801;DHT22;8518;53.236;10.384;2023-02-15T18:03:59;6.80;99.90
16801;DHT22;8518;53.236;10.384;2023-02-15T18:06:56;6.70;99.90
16801;DHT22;8518;53.236;10.384;2023-02-15T18:12:34;6.60;99.90
16801;DHT22;8518;53.236;10.384;2023-02-15T18:15:03;6.60;99.90
16801;DHT22;8518;53.236;10.384;2023-02-15T18:17:32;6.50;99.90
16801;DHT22;8518;53.236;10.384;2023-02-15T18:20:00;8.10;99.90
16801;DHT22;8518;53.236;10.384;2023-02-15T18:22:51;6.50;99.90
16801;DHT22;8518;53.236;10.384;2023-02-15T18:25:20;6.50;99.90
16801;DHT22;8518;53.236;10.384;2023-02-15T18:27:47;7.60;99.90
16801;DHT22;8518;53.236;10.384;2023-02-15T18:30:18;6.10;99.90
16801;DHT22;8518;53.236;10.384;2023-02-15T18:32:56;6.40;99.90
16801;DHT22;8518;53.236;10.384;2023-02-15T18:35:25;6.30;99.90
16801;DHT22;8518;53.236;10.384;2023-02-15T18:37:52;6.30;99.90
16801;DHT22;8518;53.236;10.384;2023-02-15T18:40:20;6.20;99.90
16801;DHT22;8518;53.236;10.384;2023-02-15T18:42:58;8.80;99.90
16801;DHT22;8518;53.236;10.384;2023-02-15T18:45:26;6.10;99.90
16801;DHT22;8518;53.236;10.384;2023-02-15T18:50:23;6.00;99.90
16801;DHT22;8518;53.236;10.384;2023-02-15T18:52:53;6.00;99.90
16801;DHT22;8518;53.236;10.384;2023-02-15T18:55:22;5.90;99.90
16801;DHT22;8518;53.236;10.384;2023-02-15T18:57:50;5.90;99.90
16801;DHT22;8518;53.236;10.384;2023-02-15T19:00:33;5.90;99.90
16801;DHT22;8518;53.236;10.384;2023-02-15T19:03:06;5.90;99.90
16801;DHT22;8518;53.236;10.384;2023-02-15T19:07:59;5.70;99.90
16801;DHT22;8518;53.236;10.384;2023-02-15T19:10:27;4.60;99.90
16801;DHT22;8518;53.236;10.384;2023-02-15T19:13:09;5.60;99.90
16801;DHT22;8518;53.236;10.384;2023-02-15T19:15:35;5.70;99.90
16801;DHT22;8518;53.236;10.384;2023-02-15T19:18:04;5.70;99.90
16801;DHT22;8518;53.236;10.384;2023-02-15T19:20:41;5.60;99.90
16801;DHT22;8518;53.236;10.384;2023-02-15T19:23:23;5.70;99.90
16801;DHT22;8518;53.236;10.384;2023-02-15T19:25:57;5.60;99.90
16801;DHT22;8518;53.236;10.384;2023-02-15T19:28:31;5.50;99.90
16801;DHT22;8518;53.236;10.384;2023-02-15T19:31:01;5.70;99.90
16801;DHT22;8518;53.236;10.384;2023-02-15T19:33:43;8.40;99.90
16801;DHT22;8518;53.236;10.384;2023-02-15T19:36:14;8.20;99.90
16801;DHT22;8518;53.236;10.384;2023-02-15T19:38:50;7.00;99.90
16801;DHT22;8518;53.236;10.384;2023-02-15T19:41:39;5.50;99.90
16801;DHT22;8518;53.236;10.384;2023-02-15T19:46:34;5.40;99.90
16801;DHT22;8518;53.236;10.384;2023-02-15T19:51:30;5.40;99.90
16801;DHT22;8518;53.236;10.384;2023-02-15T19:53:57;5.40;99.90
16801;DHT22;8518;53.236;10.384;2023-02-15T19:58:52;5.30;99.90
16801;DHT22;8518;53.236;10.384;2023-02-15T20:01:25;6.30;99.90
16801;DHT22;8518;53.236;10.384;2023-02-15T20:03:51;5.40;99.90
16801;DHT22;8518;53.236;10.384;2023-02-15T20:06:18;5.20;99.90
16801;DHT22;8518;53.236;10.384;2023-02-15T20:11:13;5.20;99.90
16801;DHT22;8518;53.236;10.384;2023-02-15T20:16:05;4.90;99.90
16801;DHT22;8518;53.236;10.384;2023-02-15T20:18:35;4.70;99.90
16801;DHT22;8518;53.236;10.384;2023-02-15T20:21:02;5.10;99.90
16801;DHT22;8518;53.236;10.384;2023-02-15T20:24:05;5.00;99.90
16801;DHT22;8518;53.236;10.384;2023-02-15T20:28:59;5.00;99.90
16801;DHT22;8518;53.236;10.384;2023-02-15T20:36:23;5.00;99.90
16801;DHT22;8518;53.236;10.384;2023-02-15T20:41:20;4.90;99.90
16801;DHT22;8518;53.236;10.384;2023-02-15T20:46:45;4.80;99.90
16801;DHT22;8518;53.236;10.384;2023-02-15T20:49:14;5.10;99.90
16801;DHT22;8518;53.236;10.384;2023-02-15T20:51:42;6.70;99.90
16801;DHT22;8518;53.236;10.384;2023-02-15T20:54:22;7.40;99.90
16801;DHT22;8518;53.236;10.384;2023-02-15T20:59:24;4.60;99.90
16801;DHT22;8518;53.236;10.384;2023-02-15T21:02:22;4.60;99.90
16801;DHT22;8518;53.236;10.384;2023-02-15T21:08:12;4.50;99.90
16801;DHT22;8518;53.236;10.384;2023-02-15T21:11:31;4.80;99.90
16801;DHT22;8518;53.236;10.384;2023-02-15T21:22:12;4.80;99.90
16801;DHT22;8518;53.236;10.384;2023-02-15T21:24:43;4.50;99.90
16801;DHT22;8518;53.236;10.384;2023-02-15T21:27:11;4.50;99.90
16801;DHT22;8518;53.236;10.384;2023-02-15T21:29:37;4.50;99.90
16801;DHT22;8518;53.236;10.384;2023-02-15T21:32:08;5.70;99.90
16801;DHT22;8518;53.236;10.384;2023-02-15T21:34:34;4.20;99.90
16801;DHT22;8518;53.236;10.384;2023-02-15T21:37:00;4.40;99.90
16801;DHT22;8518;53.236;10.384;2023-02-15T21:39:28;4.50;99.90
16801;DHT22;8518;53.236;10.384;2023-02-15T21:42:10;5.50;99.90
16801;DHT22;8518;53.236;10.384;2023-02-15T21:44:55;7.10;99.90
16801;DHT22;8518;53.236;10.384;2023-02-15T21:47:42;4.90;99.90
16801;DHT22;8518;53.236;10.384;2023-02-15T21:50:21;4.50;99.90
16801;DHT22;8518;53.236;10.384;2023-02-15T21:53:39;4.50;99.90
16801;DHT22;8518;53.236;10.384;2023-02-15T21:56:12;4.40;99.90
16801;DHT22;8518;53.236;10.384;2023-02-15T21:58:38;6.80;99.90
16801;DHT22;8518;53.236;10.384;2023-02-15T22:01:04;4.50;99.90
16801;DHT22;8518;53.236;10.384;2023-02-15T22:03:33;4.50;99.90
16801;DHT22;8518;53.236;10.384;2023-02-15T22:05:59;4.50;99.90
16801;DHT22;8518;53.236;10.384;2023-02-15T22:08:25;4.30;99.90
16801;DHT22;8518;53.236;10.384;2023-02-15T22:10:53;4.40;99.90
16801;DHT22;8518;53.236;10.384;2023-02-15T22:13:30;4.30;99.90
16801;DHT22;8518;53.236;10.384;2023-02-15T22:18:28;4.30;99.90
16801;DHT22;8518;53.236;10.384;2023-02-15T22:20:55;3.90;99.90
16801;DHT22;8518;53.236;10.384;2023-02-15T22:23:23;4.20;99.90
16801;DHT22;8518;53.236;10.384;2023-02-15T22:25:57;4.10;99.90
16801;DHT22;8518;53.236;10.384;2023-02-15T22:28:41;4.00;99.90
16801;DHT22;8518;53.236;10.384;2023-02-15T22:31:21;5.20;99.90
16801;DHT22;8518;53.236;10.384;2023-02-15T22:33:47;3.90;99.90
16801;DHT22;8518;53.236;10.384;2023-02-15T22:36:29;6.10;99.90
16801;DHT22;8518;53.236;10.384;2023-02-15T22:38:55;4.10;99.90
16801;DHT22;8518;53.236;10.384;2023-02-15T22:41:24;4.10;99.90
16801;DHT22;8518;53.236;10.384;2023-02-15T22:46:20;4.10;99.90
16801;DHT22;8518;53.236;10.384;2023-02-15T22:48:47;4.00;99.90
16801;DHT22;8518;53.236;10.384;2023-02-15T22:51:17;4.10;99.90
16801;DHT22;8518;53.236;10.384;2023-02-15T22:56:19;4.10;99.90
16801;DHT22;8518;53.236;10.384;2023-02-15T22:58:46;4.10;99.90
16801;DHT22;8518;53.236;10.384;2023-02-15T23:01:27;4.10;99.90
16801;DHT22;8518;53.236;10.384;2023-02-15T23:08:45;4.10;99.90
16801;DHT22;8518;53.236;10.384;2023-02-15T23:11:11;4.20;99.90
16801;DHT22;8518;53.236;10.384;2023-02-15T23:13:37;6.20;99.90
16801;DHT22;8518;53.236;10.384;2023-02-15T23:16:05;4.30;99.90
16801;DHT22;8518;53.236;10.384;2023-02-15T23:18:34;4.20;99.90
16801;DHT22;8518;53.236;10.384;2023-02-15T23:21:10;4.10;99.90
16801;DHT22;8518;53.236;10.384;2023-02-15T23:23:38;4.20;99.90
16801;DHT22;8518;53.236;10.384;2023-02-15T23:26:17;4.10;99.90
16801;DHT22;8518;53.236;10.384;2023-02-15T23:28:44;4.10;99.90
16801;DHT22;8518;53.236;10.384;2023-02-15T23:31:20;4.10;99.90
16801;DHT22;8518;53.236;10.384;2023-02-15T23:33:47;4.10;99.90
16801;DHT22;8518;53.236;10.384;2023-02-15T23:36:24;3.90;99.90
16801;DHT22;8518;53.236;10.384;2023-02-15T23:38:51;4.10;99.90
16801;DHT22;8518;53.236;10.384;2023-02-15T23:41:20;3.90;99.90
16801;DHT22;8518;53.236;10.384;2023-02-15T23:43:59;4.00;99.90
16801;DHT22;8518;53.236;10.384;2023-02-15T23:46:42;4.00;99.90
16801;DHT22;8518;53.236;10.384;2023-02-15T23:49:13;4.00;99.90
16801;DHT22;8518;53.236;10.384;2023-02-15T23:51:58;4.40;99.90
16801;DHT22;8518;53.236;10.384;2023-02-15T23:56:59;3.90;99.90
16801;DHT22;8518;53.236;10.384;2023-02-15T23:59:26;4.00;99.90
